LGSA/CHQ METAR and TAF weather

Enter ICAO airport designator
Station Type Date Time Source
LGSA METAR 2019/06/20 07:50 UTC NOAA

LGSA 200750Z 30006KT CAVOK 29/19 Q1011


Station Type Date Time Source
LGSA Decoded METAR 2019/06/20 07:50 UTC NOAA

Souda Airport , Greece (LGSA) 35-29N 024-07E 151M
Jun 20, 2019 - 03:50 AM EDT / 2019.06.20 0750 UTC
Wind: from the WNW (300 degrees) at 7 MPH (6 KT):0
Visibility: greater than 7 mile(s):0
Temperature: 84 F (29 C)
Dew Point: 66 F (19 C)
Relative Humidity: 54%
Pressure (altimeter): 29.85 in. Hg (1011 hPa)
ob: LGSA 200750Z 30006KT CAVOK 29/19 Q1011
cycle: 8

Station Type Date Time Source
LGSA TAF 2019/06/20 06:12 UTC NOAA

TAF LGSA 200500Z 2006/2106 27010KT 9999 FEW025
TEMPO 2007/2010 33010KT
TEMPO 2009/2012 04010KT

Example: see airport list